Flight Track Log - Related Links

Times and Time Zones

All times are in EDT time to prevent confusion due to time zone crossing. See the UAL1058 flight status page for this flight to view local times or setup timezone preferences in your user account.

Time Position Orientation Groundspeed Altitude Reporting Facility
EDT Latitude Longitude Course Direction KTS MPH feet Rate Location/Type
Sun 09:00:58 AM 40.7333 -73.8333 246° West 207 238 2,300  Level New TRACON
Sun 09:01:58 AM 40.7500 -73.7667 72° East 245 282 4,400 2,450 Climbing New TRACON
Sun 09:02:58 AM 40.8167 -73.8167 330° Northwest 268 308 7,200 2,900 Climbing New TRACON
Sun 09:03:00 AM 40.6646 -74.4133 259° West  Level FlightAware
Sun 09:03:58 AM 40.8500 -73.9000 298° West 275 316 10,200  Level New TRACON
Sun 09:04:00 AM 40.6431 -74.5537 259° West  Level FlightAware
Sun 09:04:58 AM 40.8833 -74.0000 294° West 296 341 12,000  Level New TRACON
Sun 09:05:00 AM 40.6167 -74.6909 270° West  Level FlightAware
Sun 09:05:52 AM 40.9000 -74.1000 282° West 337 388 13,200  Level New TRACON
Sun 09:06:00 AM 40.5916 -74.8252 246° West  Level FlightAware
Sun 09:06:58 AM 40.8500 -74.2167 240° Southwest 346 398 15,000  Level New TRACON
Sun 09:07:58 AM 40.8167 -74.3333 249° West 349 402 15,100 775 Climbing New TRACON
Sun 09:09:56 AM 40.7389 -74.5397 244° Southwest 362 417 17,300 1,466 Climbing New Center
Sun 09:10:54 AM 40.6936 -74.6547 243° Southwest 354 407 19,400 2,000 Climbing New Center
Sun 09:11:56 AM 40.6519 -74.7756 246° West 359 413 21,300 1,850 Climbing New Center
Sun 09:12:54 AM 40.6083 -74.8961 245° Southwest 364 419 23,100 1,686 Climbing New Center
Sun 09:13:57 AM 40.5600 -75.0242 244° Southwest 378 435 24,700 1,537 Climbing New Center
Sun 09:14:55 AM 40.4911 -75.1428 233° Southwest 388 447 26,200 1,424 Climbing New Center
Sun 09:15:55 AM 40.4203 -75.2528 230° Southwest 407 468 27,500 1,160 Climbing New Center
Sun 09:16:54 AM 40.3425 -75.3758 230° Southwest 421 484 28,500 1,059 Climbing New Center
Sun 09:17:54 AM 40.2692 -75.4933 231° Southwest 427 491 29,600 1,279 Climbing New Center
Sun 09:18:56 AM 40.1953 -75.6186 232° Southwest 432 497 31,100 1,450 Climbing New Center
Sun 09:19:54 AM 40.1294 -75.7472 236° Southwest 432 497 32,500 1,160 Climbing New Center
Sun 09:20:55 AM 40.0697 -75.8758 239° Southwest 432 497 33,400 984 Climbing New Center
Sun 09:21:56 AM 40.0081 -76.0014 237° Southwest 420 483 34,500 765 Climbing New Center
Sun 09:24:11 AM 39.8492 -76.3022 236° Southwest 432 497 35,900 459 Climbing Washington Center
Sun 09:25:12 AM 39.7858 -76.4258 236° Southwest 432 497 36,000 50 Climbing Washington Center
Sun 09:26:12 AM 39.7244 -76.5358 234° Southwest 426 490 36,000  Level Washington Center
Sun 09:27:13 AM 39.6589 -76.6617 236° Southwest 426 490 36,000  Level Washington Center
Sun 09:28:11 AM 39.5931 -76.7872 236° Southwest 421 484 36,000  Level Washington Center
Sun 09:29:12 AM 39.5272 -76.9125 236° Southwest 421 484 36,000  Level Washington Center
Sun 09:30:12 AM 39.4508 -77.0242 228° Southwest 421 484 36,000  Level Washington Center
Sun 09:31:13 AM 39.3600 -77.1217 220° Southwest 421 484 36,000  Level Washington Center
Sun 09:32:11 AM 39.2672 -77.2161 218° Southwest 426 490 36,000  Level Washington Center
Sun 09:33:11 AM 39.1719 -77.3158 219° Southwest 431 496 36,000  Level Washington Center
Sun 09:34:12 AM 39.0808 -77.4125 219° Southwest 436 502 36,000  Level Washington Center
Sun 09:35:13 AM 38.9792 -77.5169 219° Southwest 436 502 36,000  Level Washington Center
Sun 09:36:13 AM 38.8817 -77.6183 219° Southwest 447 514 36,000  Level Washington Center
Sun 09:37:11 AM 38.7819 -77.7194 218° Southwest 453 521 36,000  Level Washington Center
Sun 09:38:12 AM 38.6906 -77.8153 219° Southwest 453 521 36,000  Level Washington Center
Sun 09:39:13 AM 38.6053 -77.9242 225° Southwest 439 505 36,000  Level Washington Center
Sun 09:40:13 AM 38.5339 -78.0467 233° Southwest 439 505 36,000  Level Washington Center
Sun 09:41:11 AM 38.4606 -78.1717 233° Southwest 439 505 36,000  Level Washington Center
Sun 09:42:11 AM 38.3889 -78.2936 233° Southwest 439 505 36,000  Level Washington Center
Sun 09:43:12 AM 38.3153 -78.4181 233° Southwest 444 511 36,000  Level Washington Center
Sun 09:44:13 AM 38.2564 -78.5164 233° Southwest 444 511 36,000  Level Washington Center
Sun 09:45:13 AM 38.1822 -78.6508 235° Southwest 444 511 36,000  Level Washington Center
Sun 09:46:11 AM 38.1097 -78.7903 237° Southwest 444 511 36,000  Level Washington Center
Sun 09:47:12 AM 38.0439 -78.9142 236° Southwest 434 499 36,000  Level Washington Center
Sun 09:48:25 AM 37.9756 -79.0428 236° Southwest 434 499 36,000  Level Washington Center
Sun 09:49:24 AM 37.8981 -79.1944 237° Southwest 434 499 36,000  Level Washington Center
Sun 09:50:25 AM 37.8403 -79.3100 238° Southwest 434 499 36,000  Level Washington Center
Sun 09:51:25 AM 37.7717 -79.4381 236° Southwest 434 499 36,000  Level Washington Center
Sun 09:52:23 AM 37.6961 -79.5786 236° Southwest 444 511 36,000  Level Washington Center
Sun 09:53:23 AM 37.6358 -79.6961 237° Southwest 444 511 36,000  Level Washington Center
Sun 09:54:25 AM 37.5600 -79.8386 236° Southwest 449 517 36,000  Level Washington Center
Sun 09:56:43 AM 37.4033 -80.1281 236° Southwest 454 522 36,000  Level Atlanta Center
Sun 09:57:43 AM 37.3364 -80.2517 236° Southwest 448 516 36,000  Level Atlanta Center
Sun 09:58:43 AM 37.2692 -80.3747 236° Southwest 438 504 36,000  Level Atlanta Center
Sun 09:59:43 AM 37.2019 -80.4978 236° Southwest 438 504 36,000  Level Atlanta Center
Sun 10:00:43 AM 37.1308 -80.6336 237° Southwest 433 498 36,000  Level Atlanta Center
Sun 10:01:43 AM 37.0614 -80.7589 235° Southwest 433 498 36,000  Level Atlanta Center
Sun 10:02:43 AM 36.9978 -80.8811 237° Southwest 433 498 36,000  Level Atlanta Center
Sun 10:03:43 AM 36.9403 -80.9978 238° Southwest 428 493 36,000  Level Atlanta Center
Sun 10:04:43 AM 36.8747 -81.1275 238° Southwest 434 499 36,000  Level Atlanta Center
Sun 10:05:43 AM 36.8108 -81.2517 237° Southwest 434 499 36,000  Level Atlanta Center
Sun 10:06:43 AM 36.7531 -81.3753 240° Southwest 434 499 36,000  Level Atlanta Center
Sun 10:07:43 AM 36.6869 -81.4992 236° Southwest 434 499 36,000  Level Atlanta Center
Sun 10:08:43 AM 36.6228 -81.6256 238° Southwest 434 499 36,000  Level Atlanta Center
Sun 10:09:43 AM 36.5561 -81.7489 236° Southwest 434 499 36,000  Level Atlanta Center
Sun 10:10:43 AM 36.4958 -81.8747 239° Southwest 434 499 36,000  Level Atlanta Center
Sun 10:11:43 AM 36.4250 -81.9953 234° Southwest 434 499 36,000  Level Atlanta Center
Sun 10:12:43 AM 36.3603 -82.1206 237° Southwest 439 505 36,000  Level Atlanta Center
Sun 10:13:43 AM 36.3289 -82.2581 254° West 425 489 36,000  Level Atlanta Center
Sun 10:14:43 AM 36.3103 -82.4025 261° West 425 489 36,000  Level Atlanta Center
Sun 10:15:43 AM 36.2911 -82.5497 261° West 432 497 36,000  Level Atlanta Center
Sun 10:16:43 AM 36.2678 -82.6944 259° West 432 497 36,000  Level Atlanta Center
Sun 10:17:43 AM 36.2464 -82.8544 261° West 432 497 36,000  Level Atlanta Center
Sun 10:18:43 AM 36.2250 -83.0014 260° West 432 497 36,000  Level Atlanta Center
Sun 10:19:43 AM 36.2031 -83.1483 260° West 432 497 36,000  Level Atlanta Center
Sun 10:20:43 AM 36.1833 -83.2953 261° West 432 497 36,000  Level Atlanta Center
Sun 10:21:43 AM 36.1611 -83.4419 259° West 432 497 36,000  Level Atlanta Center
Sun 10:22:43 AM 36.1431 -83.5836 261° West 426 490 36,000  Level Atlanta Center
Sun 10:23:43 AM 36.1225 -83.7278 260° West 431 496 36,000  Level Atlanta Center
Sun 10:24:43 AM 36.1000 -83.8742 259° West 431 496 36,000  Level Atlanta Center
Sun 10:25:43 AM 36.0792 -84.0181 260° West 431 496 36,000  Level Atlanta Center
Sun 10:26:43 AM 36.0561 -84.1647 259° West 431 496 36,000  Level Atlanta Center
Sun 10:27:43 AM 36.0350 -84.3058 260° West 431 496 36,000  Level Atlanta Center
Sun 10:28:43 AM 36.0139 -84.4469 260° West 431 496 36,000  Level Atlanta Center
Sun 10:29:43 AM 35.9903 -84.5878 258° West 431 496 36,000  Level Atlanta Center
Sun 10:30:43 AM 35.9708 -84.7264 260° West 431 496 36,000  Level Atlanta Center
Sun 10:31:43 AM 35.9428 -84.8750 257° West 431 496 36,000  Level Atlanta Center
Sun 10:33:44 AM 35.9011 -85.1497 259° West 444 511 36,000  Level Memphis Center
Sun 10:34:44 AM 35.8778 -85.2922 259° West 431 496 36,000  Level Memphis Center
Sun 10:35:44 AM 35.8564 -85.4319 259° West 426 490 36,000  Level Memphis Center
Sun 10:36:44 AM 35.8328 -85.5742 258° West 426 490 36,000  Level Memphis Center
Sun 10:37:44 AM 35.8089 -85.7164 258° West 426 490 36,000  Level Memphis Center
Sun 10:38:44 AM 35.7811 -85.8661 257° West 426 490 36,000  Level Memphis Center
Sun 10:39:44 AM 35.7569 -86.0083 258° West 421 484 36,000  Level Memphis Center
Sun 10:40:44 AM 35.7328 -86.1503 258° West 421 484 36,000  Level Memphis Center
Sun 10:41:44 AM 35.7119 -86.2739 258° West 416 479 36,000  Level Memphis Center
Sun 10:42:44 AM 35.6872 -86.4133 258° West 416 479 36,000  Level Memphis Center
Sun 10:43:44 AM 35.6644 -86.5522 259° West 416 479 36,000  Level Memphis Center
Sun 10:44:44 AM 35.6394 -86.6939 258° West 416 479 36,000  Level Memphis Center
Sun 10:45:44 AM 35.6144 -86.8381 258° West 422 486 36,000  Level Memphis Center
Sun 10:46:44 AM 35.5875 -86.9950 258° West 427 491 36,000  Level Memphis Center
Sun 10:47:44 AM 35.5600 -87.1364 257° West 432 497 36,000  Level Memphis Center
Sun 10:48:44 AM 35.5364 -87.2803 259° West 432 497 36,000  Level Memphis Center
Sun 10:49:44 AM 35.5106 -87.4189 257° West 426 490 36,000  Level Memphis Center
Sun 10:50:44 AM 35.4847 -87.5625 258° West 431 496 36,000  Level Memphis Center
Sun 10:51:44 AM 35.4608 -87.7036 258° West 431 496 36,000  Level Memphis Center
Sun 10:52:44 AM 35.4325 -87.8444 256° West 431 496 36,000  Level Memphis Center
Sun 10:53:44 AM 35.4100 -87.9753 258° West 431 496 36,000  Level Memphis Center
Sun 10:54:44 AM 35.3856 -88.1158 258° West 431 496 36,000  Level Memphis Center
Sun 10:55:44 AM 35.3589 -88.2592 257° West 431 496 36,000  Level Memphis Center
Sun 10:56:44 AM 35.3319 -88.4050 257° West 431 496 36,000  Level Memphis Center
Sun 10:57:44 AM 35.3028 -88.5406 255° West 423 487 36,000  Level Memphis Center
Sun 10:58:44 AM 35.2736 -88.6886 256° West 431 496 36,000  Level Memphis Center
Sun 10:59:44 AM 35.2461 -88.8342 257° West 437 503 36,000  Level Memphis Center
Sun 11:00:44 AM 35.2186 -88.9819 257° West 443 510 36,000  Level Memphis Center
Sun 11:01:44 AM 35.1889 -89.1300 256° West 443 510 36,000  Level Memphis Center
Sun 11:02:44 AM 35.1592 -89.2775 256° West 449 517 36,000  Level Memphis Center
Sun 11:03:44 AM 35.1292 -89.4406 257° West 454 522 36,000  Level Memphis Center
Sun 11:04:44 AM 35.0989 -89.5906 256° West 454 522 36,000  Level Memphis Center
Sun 11:05:44 AM 35.0683 -89.7431 256° West 454 522 36,000  Level Memphis Center
Sun 11:06:44 AM 35.0397 -89.8956 257° West 454 522 36,000  Level Memphis Center
Sun 11:07:44 AM 35.0089 -90.0478 256° West 454 522 36,000  Level Memphis Center
Sun 11:08:44 AM 34.9883 -90.1975 261° West 454 522 36,000  Level Memphis Center
Sun 11:09:44 AM 34.9636 -90.3494 259° West 454 522 36,000  Level Memphis Center
Sun 11:10:44 AM 34.9425 -90.4964 260° West 447 514 36,000  Level Memphis Center
Sun 11:11:44 AM 34.9194 -90.6458 259° West 453 521 36,000  Level Memphis Center
Sun 11:12:44 AM 34.8961 -90.7950 259° West 447 514 36,000  Level Memphis Center
Sun 11:13:44 AM 34.8744 -90.9419 260° West 452 520 36,000  Level Memphis Center
Sun 11:14:44 AM 34.8508 -91.0908 259° West 452 520 36,000  Level Memphis Center
Sun 11:15:44 AM 34.8292 -91.2375 260° West 443 510 36,000  Level Memphis Center
Sun 11:16:44 AM 34.8050 -91.3864 259° West 448 516 36,000  Level Memphis Center
Sun 11:17:44 AM 34.7828 -91.5328 260° West 448 516 36,000  Level Memphis Center
Sun 11:18:44 AM 34.7628 -91.6667 260° West 448 516 36,000  Level Memphis Center
Sun 11:19:44 AM 34.7358 -91.8203 258° West 436 502 36,000  Level Memphis Center
Sun 11:20:44 AM 34.7111 -91.9689 259° West 436 502 36,000  Level Memphis Center
Sun 11:21:44 AM 34.6531 -92.1017 242° Southwest 441 507 36,000  Level Memphis Center
Sun 11:22:44 AM 34.5314 -92.1547 200° South 420 483 36,000  Level Memphis Center
Sun 11:23:44 AM 34.4036 -92.1797 189° South 428 493 36,000  Level Memphis Center
Sun 11:24:44 AM 34.2761 -92.2047 189° South 450 518 36,000  Level Memphis Center
Sun 11:26:00 AM 34.1290 -92.2270 189° South  Level FlightAware
Sun 11:26:44 AM 34.0350 -92.2622 189° South 470 541 36,000  Level Memphis Center
Sun 11:29:02 AM 33.7361 -92.3183 189° South 469 540 36,000  Level Fort Center
Sun 11:30:02 AM 33.6058 -92.3458 190° South 477 549 36,000  Level Fort Center
Sun 11:31:02 AM 33.4733 -92.3733 190° South 484 557 36,000  Level Fort Center
Sun 11:32:02 AM 33.3428 -92.3983 189° South 484 557 36,000  Level Fort Center
Sun 11:33:02 AM 33.2103 -92.4256 190° South 484 557 36,000  Level Fort Center
Sun 11:34:02 AM 33.0778 -92.4531 190° South 484 557 36,000  Level Fort Center
Sun 11:35:02 AM 32.9475 -92.4800 190° South 484 557 36,000  Level Fort Center
Sun 11:36:02 AM 32.8147 -92.5047 189° South 479 551 36,000  Level Fort Center
Sun 11:38:10 AM 32.5292 -92.5669 190° South 478 550 36,000  Level Houston Center
Sun 11:39:12 AM 32.3953 -92.5897 188° South 482 555 36,000  Level Houston Center
Sun 11:40:14 AM 32.2617 -92.6158 189° South 485 558 36,000  Level Houston Center
Sun 11:41:16 AM 32.1306 -92.6428 190° South 481 554 36,000 -49 Level Houston Center
Sun 11:42:17 AM 31.9731 -92.6789 191° South 480 552 35,900  Descending Houston Center
Sun 11:43:19 AM 31.8711 -92.7772 219° Southwest 470 541 36,000  Climbing Houston Center
Sun 11:44:21 AM 31.7681 -92.8778 220° Southwest 480 552 35,900  Descending Houston Center
Sun 11:45:23 AM 31.6678 -92.9758 220° Southwest 473 544 36,000 48 Climbing Houston Center
Sun 11:46:25 AM 31.5658 -93.0719 219° Southwest 471 542 36,000  Level Houston Center
Sun 11:47:27 AM 31.4653 -93.1711 220° Southwest 472 543 36,000  Level Houston Center
Sun 11:48:29 AM 31.3481 -93.2817 219° Southwest 474 545 36,000  Level Houston Center
Sun 11:49:31 AM 31.2411 -93.3817 219° Southwest 471 542 36,000 -341 Level Houston Center
Sun 11:50:32 AM 31.1358 -93.4808 219° Southwest 475 547 35,300 -1,805 Descending Houston Center
Sun 11:51:34 AM 31.0350 -93.5769 219° Southwest 480 552 32,300 -2,806 Descending Houston Center
Sun 11:52:36 AM 30.9322 -93.6753 219° Southwest 482 555 29,500 -2,565 Descending Houston Center
Sun 11:53:38 AM 30.8331 -93.7692 219° Southwest 467 537 27,000 -2,565 Descending Houston Center
Sun 11:54:40 AM 30.7183 -93.8767 219° Southwest 446 513 24,200 -2,565 Descending Houston Center
Sun 11:55:42 AM 30.6267 -93.9636 219° Southwest 433 498 21,700 -2,371 Descending Houston Center
Sun 11:56:44 AM 30.5367 -94.0481 219° Southwest 423 487 19,300 -2,471 Descending Houston Center
Sun 11:57:24 AM 30.4733 -94.1075 219° Southwest 410 472 17,500 -2,589 Descending Houston Center
Sun 11:58:19 AM 30.3906 -94.1842 219° Southwest 394 453 15,200 -2,379 Descending Houston Center
Sun 11:59:20 AM 30.3097 -94.2603 219° Southwest 385 443 12,900 -1,574 Descending Houston Center
Sun 12:00:21 PM 30.2289 -94.3339 218° Southwest 336 387 12,000 -593 Descending Houston Center
Sun 12:00:51 PM 30.1969 -94.3700 224° Southwest 341 392 12,000  Level Houston Center
Sun 12:01:53 PM 30.1789 -94.4719 258° West 327 376 12,000  Level Houston Center
Sun 12:02:55 PM 30.1608 -94.5811 259° West 327 376 12,000  Level Houston Center
Sun 12:03:56 PM 30.1444 -94.6761 259° West 308 354 12,000 49 Level Houston Center
Sun 12:04:58 PM 30.1292 -94.7664 259° West 291 335 12,100 -290 Climbing Houston Center
Sun 12:06:00 PM 30.1125 -94.8614 259° West 300 345 11,400 -1,074 Descending Houston Center
Sun 12:06:33 PM 30.1053 -94.9228 262° West 287 330 10,400 -1,537 Descending Houston Center
Sun 12:07:22 PM 30.1056 -94.9928 270° West 284 327 9,300 -1,253 Descending Houston Center
Sun 12:08:04 PM 30.1067 -95.0433 271° West 285 328 8,500 -1,479 Descending Houston Center
Sun 12:08:35 PM 30.1056 -95.1039 269° West 281 323 7,500 -1,645 Descending Houston Center
Sun 12:09:06 PM 30.1072 -95.1503 272° West 280 322 6,800 -978 Descending Houston Center
Sun 12:10:07 PM 30.1069 -95.2356 270° West 270 311 6,000 -390 Descending Houston Center
Sun 12:11:09 PM 30.1069 -95.3083 270° West 232 267 6,000  Level Houston Center
Sun 12:12:11 PM 30.1069 -95.3811 270° West 227 261 6,000 -677 Level Houston Center
Sun 12:13:13 PM 30.1022 -95.4514 266° West 222 255 4,600 -1,403 Descending Houston Center
Sun 12:14:15 PM 30.0522 -95.4928 216° Southwest 207 238 3,100 -1,306 Descending Houston Center
Sun 12:15:17 PM 30.0103 -95.4703 155° Southeast 199 229 1,900 -878 Descending Houston Center
Sun 12:16:18 PM 29.9942 -95.4253 112° Southeast 169 194 1,300 -732 Descending Houston Center
Sun 12:17:20 PM 29.9925 -95.3728 92° East 162 186 400 -484 Descending Houston Center
Sun 12:18:22 PM 29.9936 -95.3236 88° East 161 185 300 -97 Descending Houston Center

Login

Don't have an account? Register now (free) for customized features, flight alerts, and more!